Time;durP1;ratioP1;P1;durP2;ratioP2;P2;SDS_P1;SDS_P2;PMS_P1;PMS_P2;Temp;Humidity;BMP_temperature;BMP_pressure;BME280_temperature;BME280_humidity;BME280_pressure;Samples;Min_cycle;Max_cycle;Signal;HPM_P1;HPM_P2
2022/04/26 03:38:59;;;;;;;541.88;18.83;;;;;;;1.37;100.00;98172.94;10329950;28;20057;-82
2022/04/26 03:44:11;;;;;;;90.70;13.52;;;;;;;1.33;100.00;98166.13;10320136;28;21047;-83
2022/04/26 03:49:16;;;;;;;117.45;14.20;;;;;;;1.19;100.00;98168.91;10358106;28;20042;-83
2022/04/26 03:54:20;;;;;;;16.75;15.25;;;;;;;1.14;100.00;98168.41;10315917;28;21274;-79
2022/04/26 03:59:23;;;;;;;19.70;16.48;;;;;;;1.13;100.00;98164.88;10318204;28;20053;-83
2022/04/26 04:04:27;;;;;;;21.70;19.23;;;;;;;1.11;100.00;98165.97;10322019;28;20042;-85
2022/04/26 04:09:31;;;;;;;26.50;21.70;;;;;;;1.13;100.00;98178.16;10323547;28;20082;-82
2022/04/26 04:14:36;;;;;;;19.63;17.70;;;;;;;1.12;100.00;98181.75;10326489;28;20066;-82
2022/04/26 04:19:40;;;;;;;43.72;15.68;;;;;;;0.94;100.00;98178.63;10339431;28;20062;-81
2022/04/26 04:24:43;;;;;;;17.45;15.73;;;;;;;0.98;100.00;98176.59;10364210;28;20141;-81
2022/04/26 04:29:46;;;;;;;18.45;16.55;;;;;;;1.01;100.00;98171.06;10365567;28;20124;-81
2022/04/26 04:34:51;;;;;;;23.58;19.98;;;;;;;1.03;100.00;98179.75;10362089;28;20413;-85
2022/04/26 04:39:54;;;;;;;17.33;15.63;;;;;;;1.06;100.00;98183.03;10358030;28;20494;-82
2022/04/26 04:44:57;;;;;;;164.05;13.68;;;;;;;0.95;100.00;98185.59;10376350;28;20125;-86
2022/04/26 04:50:02;;;;;;;39.42;11.68;;;;;;;0.96;100.00;98183.81;10359542;28;20073;-83
2022/04/26 04:55:05;;;;;;;24.80;12.35;;;;;;;0.94;100.00;98191.88;10361888;28;20881;-83
2022/04/26 05:00:09;;;;;;;12.68;11.48;;;;;;;0.97;100.00;98190.81;10357781;28;20045;-79
2022/04/26 05:05:14;;;;;;;12.88;11.68;;;;;;;1.01;100.00;98202.88;10363279;28;20053;-83
2022/04/26 05:10:17;;;;;;;15.20;13.80;;;;;;;1.10;100.00;98204.06;10375305;28;20069;-85
2022/04/26 05:15:20;;;;;;;30.42;23.85;;;;;;;1.22;100.00;98203.19;10368433;28;20069;-82
2022/04/26 05:20:25;;;;;;;34.15;26.20;;;;;;;1.38;100.00;98213.59;10355750;28;20180;-83
2022/04/26 05:25:28;;;;;;;34.20;26.20;;;;;;;1.51;100.00;98210.94;10372384;28;20184;-84
2022/04/26 05:30:31;;;;;;;35.63;26.30;;;;;;;1.65;100.00;98225.88;10356970;28;20081;-81
2022/04/26 05:35:35;;;;;;;41.05;29.10;;;;;;;1.80;100.00;98222.13;10358033;28;20138;-83
2022/04/26 05:40:38;;;;;;;41.85;30.48;;;;;;;1.96;100.00;98227.16;10354148;28;20127;-84
2022/04/26 05:45:42;;;;;;;55.92;35.58;;;;;;;2.21;100.00;98221.84;10367939;28;20137;-84
2022/04/26 05:50:46;;;;;;;56.58;35.95;;;;;;;2.44;100.00;98228.97;10350423;28;20038;-85
2022/04/26 05:55:55;;;;;;;53.92;34.78;;;;;;;2.60;100.00;98230.47;10355408;28;20544;-84
2022/04/26 06:00:58;;;;;;;53.47;34.97;;;;;;;2.80;100.00;98236.09;10358153;28;20106;-83
2022/04/26 06:06:05;;;;;;;51.83;34.30;;;;;;;2.99;100.00;98240.84;10368141;28;20100;-85
2022/04/26 06:11:08;;;;;;;62.72;38.47;;;;;;;3.21;100.00;98245.38;10359864;28;20049;-85
2022/04/26 06:16:11;;;;;;;80.25;46.05;;;;;;;3.55;100.00;98248.06;10362865;28;20473;-86
2022/04/26 06:21:15;;;;;;;105.85;53.65;;;;;;;3.97;100.00;98247.44;10361505;28;20053;-83
2022/04/26 06:26:18;;;;;;;111.90;57.67;;;;;;;4.48;100.00;98252.13;10367745;28;21263;-80
2022/04/26 06:31:22;;;;;;;109.88;57.58;;;;;;;4.86;100.00;98252.59;10366930;28;20399;-87
2022/04/26 06:37:15;;;;;;;87.30;49.58;;;;;;;5.40;100.00;98260.50;10386571;28;20075;-82
2022/04/26 06:42:20;;;;;;;87.75;51.28;;;;;;;5.72;100.00;98262.19;10399873;28;20123;-83
2022/04/26 06:47:23;;;;;;;77.88;48.55;;;;;;;6.01;100.00;98253.47;10371442;28;20453;-82
2022/04/26 06:52:31;;;;;;;60.65;42.38;;;;;;;6.38;100.00;98252.84;10357006;28;20054;-82
2022/04/26 06:57:37;;;;;;;53.42;37.97;;;;;;;6.85;100.00;98251.31;10360691;28;20248;-82
2022/04/26 07:02:42;;;;;;;33.80;29.20;;;;;;;7.22;100.00;98245.22;10375655;28;20136;-83
2022/04/26 07:07:45;;;;;;;26.27;22.20;;;;;;;7.48;100.00;98242.75;10360989;28;20049;-85
2022/04/26 07:12:49;;;;;;;22.67;20.30;;;;;;;7.78;100.00;98239.94;10356319;28;20109;-84
2022/04/26 07:17:52;;;;;;;21.17;18.98;;;;;;;8.07;100.00;98233.56;10359953;28;20050;-84
2022/04/26 07:22:56;;;;;;;16.42;14.70;;;;;;;8.32;100.00;98205.19;10371431;28;20070;-83
2022/04/26 07:28:01;;;;;;;16.15;14.55;;;;;;;8.52;100.00;98199.69;10361375;28;20148;-83
2022/04/26 07:38:25;;;;;;;14.30;12.90;;;;;;;9.02;100.00;98191.03;10380853;28;20080;-82
2022/04/26 07:43:29;;;;;;;13.43;12.02;;;;;;;9.29;100.00;98196.41;10389196;28;20065;-84
2022/04/26 07:48:33;;;;;;;13.38;12.07;;;;;;;9.55;100.00;98196.38;10383519;28;20096;-82
2022/04/26 07:53:36;;;;;;;11.43;10.32;;;;;;;9.73;100.00;98193.63;10367081;28;20049;-80
2022/04/26 07:58:40;;;;;;;10.05;9.15;;;;;;;9.96;100.00;98193.03;10385911;28;20153;-82
2022/04/26 08:03:43;;;;;;;10.18;8.88;;;;;;;10.09;100.00;98196.09;10370847;28;20045;-81
2022/04/26 08:08:46;;;;;;;9.00;8.10;;;;;;;10.30;100.00;98200.19;10366159;28;20038;-82
2022/04/26 08:13:51;;;;;;;7.65;6.95;;;;;;;10.50;100.00;98191.84;10364409;28;20073;-82
2022/04/26 08:18:54;;;;;;;8.13;7.32;;;;;;;10.73;100.00;98205.50;10383160;28;20907;-82
2022/04/26 08:29:19;;;;;;;7.03;6.00;;;;;;;11.27;100.00;98196.88;10365560;28;20133;-81
2022/04/26 08:34:22;;;;;;;5.65;4.95;;;;;;;11.49;100.00;98207.94;10376273;28;20098;-80
2022/04/26 08:39:25;;;;;;;6.28;5.57;;;;;;;11.72;100.00;98211.59;10363869;28;20136;-83
2022/04/26 08:44:30;;;;;;;5.70;5.20;;;;;;;11.96;100.00;98217.91;10367277;28;20081;-81
2022/04/26 08:54:54;;;;;;;5.55;4.95;;;;;;;12.36;100.00;98220.59;10360661;28;20069;-80
2022/04/26 08:59:58;;;;;;;5.78;5.18;;;;;;;12.38;100.00;98225.84;10368818;28;20414;-82
2022/04/26 09:05:03;;;;;;;6.00;5.40;;;;;;;12.48;100.00;98227.28;10359858;28;20124;-82
2022/04/26 09:10:09;;;;;;;6.63;5.00;;;;;;;12.66;100.00;98225.31;10367819;28;20038;-83
2022/04/26 09:15:17;;;;;;;5.28;4.50;;;;;;;12.80;100.00;98219.13;10370057;28;20076;-82
2022/04/26 09:20:33;;;;;;;4.50;4.10;;;;;;;13.01;100.00;98215.78;10366988;28;20234;-82
2022/04/26 09:25:36;;;;;;;4.43;4.00;;;;;;;13.08;100.00;98215.88;10365578;28;20037;-81
2022/04/26 09:30:40;;;;;;;4.50;4.10;;;;;;;13.15;100.00;98222.22;10367653;28;20101;-82
2022/04/26 09:35:45;;;;;;;3.40;3.10;;;;;;;13.13;100.00;98210.75;10400066;28;20038;-78
2022/04/26 09:40:49;;;;;;;4.20;3.13;;;;;;;13.31;100.00;98209.59;10411762;28;20042;-78
2022/04/26 09:45:58;;;;;;;2.53;2.08;;;;;;;13.36;100.00;98217.97;10383010;28;20244;-81
2022/04/26 09:51:01;;;;;;;3.05;2.20;;;;;;;13.37;100.00;98208.84;10352198;28;20066;-81
2022/04/26 09:56:06;;;;;;;3.33;2.33;;;;;;;13.34;100.00;98215.47;10347960;28;20111;-81
2022/04/26 10:01:30;;;;;;;2.85;2.40;;;;;;;13.17;100.00;98224.78;10389292;28;20049;-83
2022/04/26 10:06:35;;;;;;;2.97;2.28;;;;;;;13.24;100.00;98229.25;10369675;28;20061;-79
2022/04/26 10:11:38;;;;;;;4.35;2.28;;;;;;;13.40;100.00;98219.34;10336486;28;20376;-79
2022/04/26 10:16:45;;;;;;;4.45;2.53;;;;;;;13.67;100.00;98225.97;10342914;28;20050;-79
2022/04/26 10:21:49;;;;;;;3.17;2.50;;;;;;;14.00;100.00;98222.06;10352597;28;20085;-80
2022/04/26 10:26:53;;;;;;;3.28;2.70;;;;;;;14.23;100.00;98223.78;10358353;28;20050;-79
2022/04/26 10:32:01;;;;;;;2.63;2.40;;;;;;;14.22;100.00;98211.28;10350888;28;20050;-79
2022/04/26 10:37:33;;;;;;;3.60;2.70;;;;;;;14.13;100.00;98219.53;10346042;28;20052;-79
2022/04/26 10:42:36;;;;;;;2.45;2.17;;;;;;;14.22;100.00;98212.13;10347745;28;20046;-79
2022/04/26 10:47:40;;;;;;;2.88;2.00;;;;;;;14.23;100.00;98215.66;10362862;28;20066;-80
2022/04/26 10:52:47;;;;;;;1.73;1.33;;;;;;;14.22;93.89;98213.97;10349404;28;20057;-80
2022/04/26 10:57:51;;;;;;;2.42;1.30;;;;;;;14.18;80.50;98211.66;10350839;28;20064;-80
2022/04/26 11:03:02;;;;;;;2.10;1.90;;;;;;;14.06;82.25;98213.16;10357804;28;20425;-81
2022/04/26 11:08:06;;;;;;;;;;;;;;;13.96;86.48;98212.63;10345235;28;20037;-78
2022/04/26 11:13:08;;;;;;;3.38;2.65;;;;;;;14.23;100.00;98218.38;10348434;28;20505;-80
2022/04/26 11:18:20;;;;;;;3.80;3.00;;;;;;;14.17;100.00;98225.41;10358907;28;20058;-79
2022/04/26 11:28:57;;;;;;;4.30;2.70;;;;;;;14.47;100.00;98226.16;10349216;28;20069;-80
2022/04/26 11:34:02;;;;;;;4.18;2.80;;;;;;;14.33;99.74;98232.47;10357863;28;20053;-80
2022/04/26 11:39:05;;;;;;;2.85;2.55;;;;;;;14.28;96.99;98235.75;10362820;28;20108;-80
2022/04/26 11:44:08;;;;;;;2.88;2.58;;;;;;;14.44;96.33;98231.97;10343125;28;20426;-80
2022/04/26 11:49:12;;;;;;;4.93;3.10;;;;;;;14.59;100.00;98231.09;10347676;28;20155;-80
2022/04/26 11:54:36;;;;;;;4.63;3.33;;;;;;;14.30;99.76;98230.13;10361013;28;20617;-79
2022/04/26 11:59:40;;;;;;;4.47;3.40;;;;;;;14.30;100.00;98224.69;10350303;28;20046;-80
2022/04/26 12:04:51;;;;;;;3.58;2.95;;;;;;;14.64;100.00;98228.66;10350163;28;20422;-80
2022/04/26 12:09:54;;;;;;;3.35;3.05;;;;;;;14.53;100.00;98229.13;10347698;28;21460;-79
2022/04/26 12:14:57;;;;;;;3.35;2.97;;;;;;;14.33;97.71;98227.03;10347005;28;20058;-80
2022/04/26 12:20:10;;;;;;;2.78;2.58;;;;;;;14.25;97.64;98224.44;10363155;28;20578;-79
2022/04/26 12:25:16;;;;;;;2.92;2.40;;;;;;;14.27;95.86;98227.81;10360853;28;20557;-80
2022/04/26 12:30:20;;;;;;;3.33;2.03;;;;;;;14.29;95.82;98218.47;10369866;28;20133;-80
2022/04/26 12:35:25;;;;;;;1.60;1.50;;;;;;;14.37;83.54;98213.94;10369517;28;20132;-80
2022/04/26 12:40:28;;;;;;;3.17;1.90;;;;;;;14.74;91.43;98207.50;10344267;28;20180;-80
2022/04/26 12:45:31;;;;;;;2.10;1.90;;;;;;;15.07;95.80;98219.69;10356045;28;20046;-80
2022/04/26 12:50:35;;;;;;;2.60;2.13;;;;;;;15.29;92.51;98206.94;10370885;28;20053;-79
2022/04/26 12:55:39;;;;;;;2.42;2.10;;;;;;;15.24;77.71;98215.66;10356257;28;20060;-80
2022/04/26 13:00:44;;;;;;;4.30;2.50;;;;;;;15.17;82.24;98206.63;10347401;28;20053;-80
2022/04/26 13:05:54;;;;;;;3.55;1.92;;;;;;;15.22;78.72;98200.63;10353405;28;20054;-81
2022/04/26 13:11:19;;;;;;;;;;;;;;;15.74;72.93;98211.19;10354852;28;20061;-80
2022/04/26 13:16:24;;;;;;;2.45;2.05;;;;;;;16.17;70.56;98208.28;10357696;28;20496;-81
2022/04/26 13:21:29;;;;;;;2.42;1.90;;;;;;;16.54;67.57;98205.28;10360615;28;20982;-81
2022/04/26 13:26:35;;;;;;;3.50;1.90;;;;;;;16.16;68.82;98212.91;10365972;28;20149;-80
2022/04/26 13:31:38;;;;;;;1.80;1.70;;;;;;;15.90;64.19;98207.34;10365664;28;20088;-80
2022/04/26 13:36:47;;;;;;;3.40;1.90;;;;;;;15.74;66.35;98208.47;10388688;28;20041;-81
2022/04/26 13:41:51;;;;;;;3.58;1.92;;;;;;;15.67;67.24;98200.28;10377585;28;20578;-81
2022/04/26 13:46:54;;;;;;;3.35;2.10;;;;;;;15.83;69.42;98190.97;10354377;28;20134;-80
2022/04/26 13:51:58;;;;;;;2.08;1.75;;;;;;;15.92;62.58;98195.25;10366795;28;20054;-80
2022/04/26 13:57:02;;;;;;;2.00;1.50;;;;;;;15.89;60.82;98197.50;10363542;28;20046;-82
2022/04/26 14:02:07;;;;;;;1.45;1.35;;;;;;;15.99;61.70;98196.09;10338162;28;20827;-80
2022/04/26 14:07:12;;;;;;;1.45;1.20;;;;;;;16.00;60.14;98197.78;10352548;28;20118;-82
2022/04/26 14:12:18;;;;;;;2.22;1.50;;;;;;;15.90;59.06;98197.31;10355653;28;20060;-81
2022/04/26 14:22:43;;;;;;;1.80;1.20;;;;;;;15.88;62.56;98199.41;10361377;28;20066;-80
2022/04/26 14:27:49;;;;;;;1.58;1.27;;;;;;;15.85;61.50;98199.78;10357477;28;20886;-82
2022/04/26 14:32:54;;;;;;;1.60;1.50;;;;;;;15.65;60.81;98205.94;10357870;28;20481;-82
2022/04/26 14:37:59;;;;;;;1.65;1.50;;;;;;;15.64;65.88;98203.41;10352958;28;20104;-81
2022/04/26 14:43:02;;;;;;;2.00;1.60;;;;;;;15.41;63.31;98205.34;10360568;28;20050;-82
2022/04/26 14:48:09;;;;;;;1.90;1.52;;;;;;;15.23;61.94;98196.84;10350302;28;20124;-81
2022/04/26 14:53:18;;;;;;;1.85;1.40;;;;;;;15.24;61.99;98198.53;10347725;28;20061;-80
2022/04/26 14:58:41;;;;;;;1.70;1.60;;;;;;;15.21;67.87;98201.66;10363159;28;20077;-80
2022/04/26 15:03:45;;;;;;;1.70;1.60;;;;;;;15.17;72.37;98203.06;10371295;28;20101;-84
2022/04/26 15:19:31;;;;;;;1.50;1.30;;;;;;;15.01;61.59;98199.59;10360443;28;20547;-81
2022/04/26 15:24:36;;;;;;;1.92;1.60;;;;;;;15.00;66.49;98205.22;10354906;28;20053;-81
2022/04/26 15:29:39;;;;;;;1.60;1.45;;;;;;;14.92;63.00;98204.34;10359591;28;20038;-79
2022/04/26 15:34:43;;;;;;;2.45;1.50;;;;;;;15.01;69.52;98207.72;10374791;28;20136;-79
2022/04/26 15:39:48;;;;;;;3.05;1.40;;;;;;;14.95;65.16;98211.25;10360852;28;20054;-80
2022/04/26 15:44:51;;;;;;;1.77;1.40;;;;;;;14.98;65.89;98210.88;10360587;28;20053;-82
2022/04/26 15:49:55;;;;;;;2.00;1.38;;;;;;;14.85;62.78;98208.84;10355789;28;20042;-79
2022/04/26 15:54:59;;;;;;;2.55;1.52;;;;;;;14.85;62.56;98205.31;10361227;28;20465;-80
2022/04/26 16:00:07;;;;;;;1.80;1.30;;;;;;;14.80;63.82;98214.03;10344343;28;20049;-80
2022/04/26 16:05:12;;;;;;;1.85;1.20;;;;;;;14.71;62.27;98205.19;10371242;28;20695;-82
2022/04/26 16:21:00;;;;;;;4.77;1.40;;;;;;;14.61;66.22;98215.47;10365003;28;20451;-78
2022/04/26 16:26:06;;;;;;;2.05;1.50;;;;;;;14.57;70.85;98222.31;10382595;28;20042;-77
2022/04/26 16:31:09;;;;;;;2.65;1.45;;;;;;;14.41;67.46;98220.66;10365056;28;20088;-77
2022/04/26 16:36:15;;;;;;;3.42;1.48;;;;;;;14.30;69.09;98227.41;10362948;28;20484;-78
2022/04/26 16:41:19;;;;;;;2.47;1.60;;;;;;;14.23;70.31;98227.31;10377467;28;20090;-78
2022/04/26 16:46:22;;;;;;;3.70;1.50;;;;;;;14.19;68.55;98223.34;10362821;28;20121;-77
2022/04/26 16:51:29;;;;;;;2.47;1.40;;;;;;;14.08;66.69;98224.66;10374622;28;20276;-77
2022/04/26 16:56:35;;;;;;;2.17;1.30;;;;;;;14.01;70.34;98231.84;10361757;28;20034;-77
2022/04/26 17:01:38;;;;;;;2.65;1.27;;;;;;;13.91;73.28;98228.59;10366393;28;20041;-79
2022/04/26 17:06:43;;;;;;;1.58;1.08;;;;;;;13.81;71.55;98227.03;10371992;28;20042;-78
2022/04/26 17:12:06;;;;;;;1.90;1.10;;;;;;;13.76;71.06;98236.72;10375387;28;20054;-78
2022/04/26 17:17:11;;;;;;;2.15;1.25;;;;;;;13.74;75.88;98242.31;10402356;28;20046;-79
2022/04/26 17:22:15;;;;;;;1.20;1.10;;;;;;;13.81;80.13;98247.81;10366559;28;20057;-78
2022/04/26 17:27:21;;;;;;;1.90;1.10;;;;;;;13.68;79.83;98249.31;10361590;28;20077;-78
2022/04/26 17:32:24;;;;;;;5.57;1.35;;;;;;;13.64;79.46;98256.13;10372620;28;20057;-78
2022/04/26 17:37:28;;;;;;;1.17;1.08;;;;;;;13.70;80.06;98263.50;10340907;28;20050;-78
2022/04/26 17:42:34;;;;;;;1.10;1.00;;;;;;;13.81;82.47;98270.34;10360895;28;21405;-79
2022/04/26 17:47:38;;;;;;;1.58;1.00;;;;;;;13.86;78.05;98281.44;10348980;28;20388;-79
2022/04/26 17:58:13;;;;;;;1.15;0.70;;;;;;;13.75;73.13;98287.31;10351575;28;20046;-79
2022/04/26 18:03:16;;;;;;;0.90;0.73;;;;;;;13.62;76.05;98300.66;10364055;28;20042;-79
2022/04/26 18:08:19;;;;;;;0.93;0.70;;;;;;;13.46;80.45;98310.63;10362726;28;20042;-82
2022/04/26 18:13:25;;;;;;;2.08;0.82;;;;;;;13.39;81.99;98326.75;10364492;28;20167;-80
2022/04/26 18:18:30;;;;;;;0.73;0.73;;;;;;;13.23;83.15;98351.16;10363047;28;20074;-80
2022/04/26 18:23:34;;;;;;;1.67;0.80;;;;;;;13.13;84.95;98359.50;10376741;28;20046;-80
2022/04/26 18:28:39;;;;;;;1.48;0.90;;;;;;;13.05;87.24;98364.97;10381659;28;20046;-81
2022/04/26 18:33:47;;;;;;;1.00;1.00;;;;;;;12.94;87.63;98372.50;10384712;28;20077;-80
2022/04/26 18:38:52;;;;;;;2.50;1.08;;;;;;;12.90;88.10;98378.44;10382839;28;20099;-80
2022/04/26 18:43:58;;;;;;;0.90;0.90;;;;;;;12.78;85.57;98388.78;10396549;28;20061;-80
2022/04/26 18:49:01;;;;;;;1.20;0.90;;;;;;;12.69;84.47;98389.84;10397650;28;20068;-80
2022/04/26 18:54:04;;;;;;;3.30;1.30;;;;;;;12.58;86.40;98391.91;10387617;28;20383;-79
2022/04/26 18:59:08;;;;;;;1.05;1.02;;;;;;;12.43;87.55;98399.06;10376376;28;20076;-80
2022/04/26 19:04:13;;;;;;;1.00;0.90;;;;;;;12.33;89.88;98402.81;10383479;28;20076;-81
2022/04/26 19:09:19;;;;;;;1.90;0.80;;;;;;;12.25;88.09;98410.94;10375826;28;20518;-81
2022/04/26 19:14:26;;;;;;;0.90;0.80;;;;;;;12.21;100.00;98420.41;10369868;28;20060;-81
2022/04/26 19:19:29;;;;;;;2.05;0.90;;;;;;;12.05;100.00;98423.13;10382668;28;20140;-81
2022/04/26 19:24:32;;;;;;;0.77;0.63;;;;;;;11.99;97.15;98435.47;10383816;28;20046;-82
2022/04/26 19:29:38;;;;;;;1.85;0.63;;;;;;;11.98;91.24;98429.19;10372294;28;20068;-81
2022/04/26 19:34:41;;;;;;;0.88;0.80;;;;;;;11.95;90.90;98434.91;10370069;28;20096;-79
2022/04/26 19:39:44;;;;;;;1.20;0.88;;;;;;;11.86;100.00;98438.63;10358785;28;20042;-80
2022/04/26 19:44:49;;;;;;;1.35;1.02;;;;;;;11.78;100.00;98450.25;10361238;28;20483;-80
2022/04/26 19:55:12;;;;;;;1.30;1.20;;;;;;;11.59;100.00;98454.13;10353845;28;20050;-81
2022/04/26 20:00:17;;;;;;;4.13;2.00;;;;;;;11.44;100.00;98455.81;10353972;28;20048;-79
2022/04/26 20:05:21;;;;;;;2.65;2.08;;;;;;;11.38;100.00;98457.31;10357666;28;20081;-79
2022/04/26 20:10:25;;;;;;;3.03;2.35;;;;;;;11.25;100.00;98468.56;10357670;28;20045;-79
2022/04/26 20:15:30;;;;;;;3.10;2.58;;;;;;;11.09;100.00;98475.63;10356430;28;20038;-79
2022/04/26 20:20:34;;;;;;;2.80;2.50;;;;;;;11.01;100.00;98472.88;10365407;28;20105;-79
2022/04/26 20:30:55;;;;;;;3.00;2.70;;;;;;;10.78;100.00;98478.84;10350953;28;20396;-80
2022/04/26 20:35:58;;;;;;;3.47;2.90;;;;;;;10.61;100.00;98493.25;10358612;28;20058;-79
2022/04/26 20:41:02;;;;;;;3.72;2.60;;;;;;;10.44;100.00;98495.00;10356534;28;20062;-79
2022/04/26 20:46:26;;;;;;;2.80;2.55;;;;;;;10.22;100.00;98494.50;10372732;28;20080;-78
2022/04/26 20:51:29;;;;;;;3.00;2.70;;;;;;;10.15;100.00;98491.59;10402068;28;20068;-79
2022/04/26 20:56:32;;;;;;;3.83;2.70;;;;;;;10.00;100.00;98495.84;10359598;28;20138;-78
2022/04/26 21:01:40;;;;;;;3.30;2.85;;;;;;;9.93;100.00;98495.59;10352359;28;20823;-78
2022/04/26 21:06:46;;;;;;;3.08;2.83;;;;;;;9.85;100.00;98504.44;10362030;28;20045;-78
2022/04/26 21:11:49;;;;;;;2.90;2.70;;;;;;;9.76;100.00;98510.75;10370686;28;20065;-77
2022/04/26 21:16:54;;;;;;;2.70;2.50;;;;;;;9.60;100.00;98515.97;10354209;28;20046;-77
2022/04/26 21:21:57;;;;;;;3.03;2.70;;;;;;;9.54;100.00;98517.44;10350655;28;20051;-78
2022/04/26 21:27:00;;;;;;;3.60;2.70;;;;;;;9.43;100.00;98518.50;10355137;28;20049;-78
2022/04/26 21:32:05;;;;;;;3.30;3.00;;;;;;;9.37;100.00;98524.47;10369068;28;20644;-77
2022/04/26 21:37:08;;;;;;;3.35;2.67;;;;;;;9.28;100.00;98526.25;10350405;28;20077;-77
2022/04/26 21:42:11;;;;;;;3.22;2.92;;;;;;;9.22;100.00;98534.91;10350785;28;20069;-77
2022/04/26 21:47:15;;;;;;;2.95;2.65;;;;;;;9.14;100.00;98532.13;10346210;28;20045;-77
2022/04/26 21:52:18;;;;;;;3.90;2.95;;;;;;;9.06;100.00;98535.56;10340740;28;20816;-77
2022/04/26 21:57:22;;;;;;;4.13;3.10;;;;;;;8.98;100.00;98543.53;10360575;28;20566;-77
2022/04/26 22:02:26;;;;;;;2.92;2.67;;;;;;;8.87;100.00;98550.78;10341284;28;20042;-77
2022/04/26 22:07:30;;;;;;;3.35;3.05;;;;;;;8.80;100.00;98552.34;10346414;28;20103;-77
2022/04/26 22:12:33;;;;;;;5.35;3.40;;;;;;;8.74;100.00;98552.94;10346574;28;20513;-77
2022/04/26 22:17:38;;;;;;;3.05;2.80;;;;;;;8.64;100.00;98561.84;10344270;28;20049;-77
2022/04/26 22:22:41;;;;;;;3.38;3.08;;;;;;;8.57;100.00;98555.38;10348729;28;20052;-77
2022/04/26 22:27:45;;;;;;;3.80;3.40;;;;;;;8.52;100.00;98564.84;10356319;28;20056;-78
2022/04/26 22:32:49;;;;;;;4.15;3.47;;;;;;;8.46;100.00;98577.00;10345735;28;20383;-77
2022/04/26 22:37:52;;;;;;;4.07;3.45;;;;;;;8.39;100.00;98567.84;10342279;28;20053;-77
2022/04/26 22:42:55;;;;;;;4.57;4.03;;;;;;;8.29;100.00;98582.09;10358176;28;20876;-77
2022/04/26 22:48:00;;;;;;;4.30;3.90;;;;;;;8.22;100.00;98590.88;10166030;28;5000920;-78
2022/04/26 22:53:03;;;;;;;4.65;4.00;;;;;;;8.13;100.00;98598.78;10367600;28;20056;-77
2022/04/26 22:58:07;;;;;;;3.55;3.25;;;;;;;8.07;100.00;98599.34;10345192;28;20061;-77
2022/04/26 23:03:11;;;;;;;4.10;3.70;;;;;;;8.00;100.00;98608.94;10351334;28;20149;-77
2022/04/26 23:08:15;;;;;;;4.00;3.60;;;;;;;7.91;100.00;98605.28;10345965;28;20050;-77
2022/04/26 23:13:18;;;;;;;4.35;3.97;;;;;;;7.83;100.00;98613.16;10358647;28;20068;-77
2022/04/26 23:18:22;;;;;;;3.97;3.53;;;;;;;7.76;100.00;98618.22;10346746;28;20161;-78
2022/04/26 23:23:26;;;;;;;4.10;3.58;;;;;;;7.65;100.00;98612.97;10347322;28;20046;-77
2022/04/26 23:28:29;;;;;;;4.18;3.60;;;;;;;7.56;100.00;98622.72;10362670;28;20136;-77
2022/04/26 23:38:52;;;;;;;4.57;4.00;;;;;;;7.32;100.00;98628.41;10346479;28;20388;-77
2022/04/26 23:43:56;;;;;;;4.47;3.97;;;;;;;7.22;100.00;98626.53;10342137;28;20042;-77
2022/04/26 23:49:00;;;;;;;4.53;4.13;;;;;;;7.15;100.00;98636.13;10345585;28;20494;-77
2022/04/26 23:54:05;;;;;;;5.13;4.63;;;;;;;7.04;100.00;98634.34;10348939;28;20890;-77
2022/04/26 23:59:08;;;;;;;7.70;4.65;;;;;;;6.92;100.00;98635.41;10345148;28;20491;-77
